createdAt,value
2022-09-05T00:00:06.232Z,1.63
2022-09-05T00:02:51.399Z,1.60
2022-09-05T00:05:22.636Z,1.98
2022-09-05T00:07:59.462Z,1.73
2022-09-05T00:10:37.240Z,1.85
2022-09-05T00:13:07.478Z,1.90
2022-09-05T00:15:40.484Z,1.63
2022-09-05T00:23:19.933Z,1.95
2022-09-05T00:24:25.375Z,1.88
2022-09-05T00:24:25.378Z,1.80
2022-09-05T00:27:05.731Z,1.88
2022-09-05T00:31:51.567Z,1.90
2022-09-05T00:32:43.855Z,1.45
2022-09-05T00:35:19.082Z,2.42
2022-09-05T00:37:49.429Z,1.83
2022-09-05T00:40:21.608Z,1.70
2022-09-05T00:42:50.528Z,1.90
2022-09-05T00:45:25.168Z,1.65
2022-09-05T00:47:55.860Z,1.95
2022-09-05T00:50:27.529Z,1.80
2022-09-05T00:53:06.497Z,1.92
2022-09-05T00:55:40.074Z,1.90
2022-09-05T00:58:22.602Z,1.90
2022-09-05T01:00:53.448Z,1.80
2022-09-05T01:03:30.803Z,2.05
2022-09-05T01:06:15.475Z,1.83
2022-09-05T01:09:07.329Z,1.85
2022-09-05T01:11:40.376Z,1.52
2022-09-05T01:14:14.407Z,1.67
2022-09-05T01:17:02.311Z,1.58
2022-09-05T01:19:35.865Z,1.80
2022-09-05T01:22:19.227Z,1.60
2022-09-05T01:24:54.486Z,1.60
2022-09-05T01:29:13.762Z,1.95
2022-09-05T01:30:31.814Z,1.70
2022-09-05T01:33:06.025Z,1.45
2022-09-05T01:36:03.407Z,1.52
2022-09-05T01:38:35.952Z,1.70
2022-09-05T01:41:18.724Z,2.00
2022-09-05T01:44:01.910Z,1.60
2022-09-05T01:46:36.201Z,1.77
2022-09-05T01:49:07.510Z,1.45
2022-09-05T01:51:38.235Z,1.73
2022-09-05T01:54:25.753Z,2.13
2022-09-05T01:57:03.689Z,1.70
2022-09-05T01:59:38.339Z,1.80
2022-09-05T02:02:21.551Z,1.88
2022-09-05T02:05:04.625Z,1.70
2022-09-05T02:07:38.153Z,1.73
2022-09-05T02:10:20.691Z,1.90
2022-09-05T02:12:54.496Z,1.45
2022-09-05T02:15:38.750Z,1.95
2022-09-05T02:18:11.575Z,1.83
2022-09-05T02:20:44.876Z,1.90
2022-09-05T02:23:31.020Z,1.92
2022-09-05T02:26:06.629Z,1.83
2022-09-05T02:28:41.823Z,1.80
2022-09-05T02:31:19.921Z,1.98
2022-09-05T02:34:01.965Z,1.83
2022-09-05T02:36:34.063Z,1.70
2022-09-05T02:43:14.344Z,1.70
2022-09-05T02:45:09.703Z,1.60
2022-09-05T02:45:16.588Z,2.13
2022-09-05T02:47:43.405Z,1.50
2022-09-05T02:54:44.895Z,1.60
2022-09-05T02:57:33.187Z,1.80
2022-09-05T02:57:34.041Z,1.70
2022-09-05T02:59:11.626Z,1.95
2022-09-05T03:01:51.354Z,1.80
2022-09-05T03:04:25.821Z,1.48
2022-09-05T03:07:08.118Z,1.70
2022-09-05T03:09:39.333Z,1.85
2022-09-05T03:12:29.322Z,1.73
2022-09-05T03:15:22.850Z,2.03
2022-09-05T03:18:20.289Z,1.77
2022-09-05T03:21:09.474Z,2.00
2022-09-05T03:24:00.377Z,1.70
2022-09-05T03:26:52.012Z,1.45
2022-09-05T03:29:38.245Z,2.08
2022-09-05T03:32:15.031Z,2.03
2022-09-05T03:34:55.266Z,1.83
2022-09-05T03:37:36.864Z,2.20
2022-09-05T03:40:23.141Z,1.85
2022-09-05T03:42:59.978Z,2.17
2022-09-05T03:45:38.719Z,2.40
2022-09-05T03:48:27.939Z,2.00
2022-09-05T03:57:08.885Z,2.08
2022-09-05T03:57:17.192Z,2.28
2022-09-05T03:57:41.873Z,2.35
2022-09-05T04:00:20.762Z,2.10
2022-09-05T04:07:06.332Z,2.38
2022-09-05T04:08:29.106Z,2.30
2022-09-05T04:08:43.014Z,2.17
2022-09-05T04:11:13.964Z,1.88
2022-09-05T04:13:46.091Z,1.83
2022-09-05T04:16:18.215Z,2.28
2022-09-05T04:18:48.350Z,2.00
2022-09-05T04:21:17.569Z,2.22
2022-09-05T04:23:52.547Z,2.08
2022-09-05T04:26:31.623Z,2.20
2022-09-05T04:29:03.775Z,2.80
2022-09-05T04:31:38.440Z,2.55
2022-09-05T04:34:10.207Z,2.00
2022-09-05T04:36:39.622Z,1.95
2022-09-05T04:39:08.505Z,2.00
2022-09-05T04:41:40.341Z,2.30
2022-09-05T04:44:09.556Z,2.20
2022-09-05T04:46:48.838Z,2.47
2022-09-05T04:49:18.038Z,2.10
2022-09-05T04:52:01.550Z,2.25
2022-09-05T04:54:32.681Z,2.22
2022-09-05T04:57:13.835Z,2.10
2022-09-05T05:01:14.475Z,2.03
2022-09-05T05:06:12.917Z,2.28
2022-09-05T05:06:19.103Z,2.10
2022-09-05T05:08:16.002Z,2.30
2022-09-05T05:17:18.000Z,2.13
2022-09-05T05:18:00.475Z,2.22
2022-09-05T05:18:09.601Z,2.22
2022-09-05T05:19:31.773Z,1.85
2022-09-05T05:22:01.133Z,2.70
2022-09-05T05:24:30.441Z,1.92
2022-09-05T05:27:02.773Z,2.38
2022-09-05T05:29:34.676Z,2.70
2022-09-05T05:32:05.160Z,2.13
2022-09-05T05:34:35.464Z,2.00
2022-09-05T05:37:04.794Z,2.17
2022-09-05T05:39:34.986Z,2.10
2022-09-05T05:42:19.465Z,2.08
2022-09-05T05:44:50.301Z,2.25
2022-09-05T05:47:29.864Z,2.40
2022-09-05T05:50:02.911Z,2.50
2022-09-05T05:52:42.915Z,3.22
2022-09-05T05:55:50.752Z,1.98
2022-09-05T05:58:27.316Z,2.08
2022-09-05T06:01:37.341Z,2.55
2022-09-05T06:04:24.936Z,2.25
2022-09-05T06:07:03.221Z,2.30
2022-09-05T06:14:52.223Z,2.58
2022-09-05T06:15:04.493Z,2.50
2022-09-05T06:16:08.595Z,2.70
2022-09-05T06:18:54.411Z,2.83
2022-09-05T06:22:09.356Z,2.28
2022-09-05T06:24:49.199Z,2.58
2022-09-05T06:27:36.117Z,2.15
2022-09-05T06:30:15.272Z,2.00
2022-09-05T06:32:58.055Z,2.65
2022-09-05T06:35:29.976Z,2.17
2022-09-05T06:38:13.294Z,2.08
2022-09-05T06:40:48.408Z,2.50
2022-09-05T06:43:22.853Z,2.60
2022-09-05T06:46:01.599Z,2.00
2022-09-05T06:48:45.763Z,2.40
2022-09-05T06:51:30.337Z,2.20
2022-09-05T06:54:13.583Z,2.30
2022-09-05T06:56:46.870Z,2.28
2022-09-05T06:59:26.704Z,1.80
2022-09-05T07:02:01.029Z,2.13
2022-09-05T07:05:38.728Z,1.90
2022-09-05T07:07:24.341Z,2.45
2022-09-05T07:09:57.396Z,2.10
2022-09-05T07:12:30.141Z,1.83
2022-09-05T07:15:09.312Z,1.60
2022-09-05T07:18:10.162Z,1.90
2022-09-05T07:21:12.312Z,3.25
2022-09-05T07:24:05.727Z,2.25
2022-09-05T07:26:51.654Z,1.77
2022-09-05T07:29:22.427Z,1.85
2022-09-05T07:31:52.618Z,2.45
2022-09-05T07:34:23.642Z,2.10
2022-09-05T07:36:57.829Z,1.50
2022-09-05T07:39:44.238Z,1.95
2022-09-05T07:42:15.960Z,1.67
2022-09-05T07:44:47.480Z,1.67
2022-09-05T07:47:19.763Z,1.80
2022-09-05T07:50:24.797Z,1.70
2022-09-05T07:56:49.543Z,1.60
2022-09-05T07:57:12.849Z,1.90
2022-09-05T07:58:19.746Z,1.90
2022-09-05T08:00:52.097Z,1.50
2022-09-05T08:03:24.482Z,1.55
2022-09-05T08:05:55.179Z,1.80
2022-09-05T08:08:25.595Z,1.50
2022-09-05T08:11:23.834Z,1.98
2022-09-05T08:13:49.567Z,1.58
2022-09-05T08:16:19.540Z,1.83
2022-09-05T08:18:50.222Z,1.50
2022-09-05T08:21:27.150Z,1.88
2022-09-05T08:23:58.184Z,1.77
2022-09-05T08:26:31.992Z,2.33
2022-09-05T08:29:02.831Z,1.75
2022-09-05T08:31:35.667Z,1.70
2022-09-05T08:34:11.900Z,1.42
2022-09-05T08:36:42.402Z,1.35
2022-09-05T08:39:12.409Z,1.73
2022-09-05T08:41:51.033Z,1.20
2022-09-05T08:46:44.683Z,1.50
2022-09-05T08:47:18.256Z,1.63
2022-09-05T08:50:00.836Z,1.35
2022-09-05T08:52:34.896Z,1.67
2022-09-05T08:55:07.392Z,2.00
2022-09-05T08:57:56.456Z,1.75
2022-09-05T09:00:27.633Z,1.70
2022-09-05T09:03:12.109Z,1.45
2022-09-05T09:06:13.670Z,1.35
2022-09-05T09:08:51.113Z,1.42
2022-09-05T09:11:26.076Z,1.90
2022-09-05T09:13:54.832Z,1.80
2022-09-05T09:16:30.360Z,1.20
2022-09-05T09:19:07.295Z,1.70
2022-09-05T09:21:39.718Z,1.40
2022-09-05T09:24:16.697Z,1.52
2022-09-05T09:26:51.965Z,1.50
2022-09-05T09:29:19.707Z,1.75
2022-09-05T09:31:57.466Z,1.42
2022-09-05T09:34:47.441Z,1.52
2022-09-05T09:37:50.946Z,1.33
2022-09-05T09:40:27.093Z,0.43
2022-09-05T09:42:57.355Z,1.10
2022-09-05T09:45:41.449Z,1.33
2022-09-05T09:48:35.953Z,1.67
2022-09-05T09:51:17.313Z,1.73
2022-09-05T09:53:50.588Z,1.40
2022-09-05T09:56:35.857Z,1.63
2022-09-05T09:59:17.224Z,0.95
2022-09-05T10:01:53.366Z,1.60
2022-09-05T10:10:39.191Z,1.23
2022-09-05T10:10:53.556Z,1.20
2022-09-05T10:11:03.845Z,1.30
2022-09-05T10:13:26.843Z,1.17
2022-09-05T10:16:16.257Z,0.93
2022-09-05T10:18:51.182Z,1.35
2022-09-05T10:21:34.839Z,0.82
2022-09-05T10:24:22.913Z,1.17
2022-09-05T10:27:18.127Z,1.13
2022-09-05T10:29:48.050Z,1.45
2022-09-05T10:35:02.807Z,0.90
2022-09-05T10:35:29.783Z,1.10
2022-09-05T10:38:04.364Z,1.38
2022-09-05T10:41:05.089Z,0.82
2022-09-05T10:43:29.429Z,1.15
2022-09-05T10:46:02.698Z,1.40
2022-09-05T10:48:36.796Z,1.60
2022-09-05T10:51:07.705Z,1.08
2022-09-05T10:53:42.277Z,1.25
2022-09-05T10:56:11.945Z,1.17
2022-09-05T11:01:23.485Z,1.73
2022-09-05T11:02:23.991Z,1.10
2022-09-05T11:04:49.460Z,1.58
2022-09-05T11:07:29.566Z,1.20
2022-09-05T11:10:12.457Z,1.30
2022-09-05T11:12:57.294Z,1.00
2022-09-05T11:15:29.453Z,1.27
2022-09-05T11:17:59.285Z,0.98
2022-09-05T11:20:36.921Z,1.30
2022-09-05T11:23:06.398Z,1.38
2022-09-05T11:25:40.494Z,1.60
2022-09-05T11:28:13.910Z,1.27
2022-09-05T11:30:43.710Z,1.50
2022-09-05T11:39:53.632Z,1.30
2022-09-05T11:39:58.055Z,1.20
2022-09-05T11:40:07.347Z,1.50
2022-09-05T11:42:01.203Z,1.30
2022-09-05T11:44:48.889Z,1.23
2022-09-05T11:47:43.417Z,1.45
2022-09-05T11:50:35.996Z,1.33
2022-09-05T11:53:11.689Z,1.08
2022-09-05T11:55:54.209Z,1.60
2022-09-05T11:58:45.333Z,1.17
2022-09-05T12:01:43.058Z,1.33
2022-09-05T12:04:13.006Z,1.55
2022-09-05T12:06:57.292Z,1.10
2022-09-05T12:09:33.098Z,1.30
2022-09-05T12:15:04.358Z,1.25
2022-09-05T12:17:42.664Z,1.30
2022-09-05T12:20:16.818Z,1.52
2022-09-05T12:22:46.745Z,1.27
2022-09-05T12:26:26.811Z,1.35
2022-09-05T12:29:27.741Z,1.88
2022-09-05T12:33:30.256Z,1.50
2022-09-05T12:36:13.011Z,1.67
2022-09-05T12:40:44.819Z,1.40
2022-09-05T12:41:37.512Z,0.82
2022-09-05T12:42:09.640Z,1.50
2022-09-05T12:42:49.801Z,1.10
2022-09-05T12:45:37.309Z,1.58
2022-09-05T12:48:11.492Z,1.30
2022-09-05T12:50:42.598Z,1.75
2022-09-05T12:53:11.252Z,1.40
2022-09-05T12:55:40.513Z,1.00
2022-09-05T13:02:50.344Z,1.50
2022-09-05T13:03:02.982Z,1.40
2022-09-05T13:04:20.090Z,1.48
2022-09-05T13:06:51.049Z,1.80
2022-09-05T13:09:21.468Z,1.77
2022-09-05T13:14:47.749Z,1.67
2022-09-05T13:15:07.605Z,1.40
2022-09-05T13:17:44.494Z,1.30
2022-09-05T13:20:17.778Z,2.13
2022-09-05T13:22:49.861Z,1.42
2022-09-05T13:25:22.925Z,1.30
2022-09-05T13:27:56.735Z,0.88
2022-09-05T13:33:38.789Z,1.58
2022-09-05T13:37:58.800Z,1.58
2022-09-05T13:38:03.575Z,1.80
2022-09-05T13:39:00.746Z,1.75
2022-09-05T13:41:31.941Z,1.60
2022-09-05T13:44:25.062Z,1.38
2022-09-05T13:46:57.917Z,1.48
2022-09-05T13:49:31.241Z,1.38
2022-09-05T13:52:07.454Z,1.20
2022-09-05T13:54:39.329Z,1.30
2022-09-05T13:57:31.461Z,0.98
2022-09-05T14:00:28.076Z,1.20
2022-09-05T14:06:08.582Z,1.67
2022-09-05T14:11:57.256Z,1.40
2022-09-05T14:20:37.720Z,1.00
2022-09-05T14:23:13.454Z,1.20
2022-09-05T14:25:44.297Z,1.23
2022-09-05T14:28:14.318Z,1.02
2022-09-05T14:35:20.795Z,1.05
2022-09-05T14:37:36.917Z,1.10
2022-09-05T14:37:49.517Z,1.02
2022-09-05T14:39:31.979Z,1.30
2022-09-05T14:42:21.165Z,1.20
2022-09-05T14:45:06.096Z,1.55
2022-09-05T14:47:47.504Z,1.38
2022-09-05T14:50:35.036Z,1.30
2022-09-05T14:56:33.336Z,1.23
2022-09-05T15:02:46.198Z,1.50
2022-09-05T15:02:57.214Z,1.33
2022-09-05T15:04:39.763Z,2.05
2022-09-05T15:07:14.822Z,1.50
2022-09-05T15:12:14.469Z,1.33
2022-09-05T15:12:44.166Z,1.33
2022-09-05T15:15:25.634Z,1.23
2022-09-05T15:17:55.019Z,1.38
2022-09-05T15:20:30.480Z,1.35
2022-09-05T15:22:58.535Z,1.02
2022-09-05T15:25:44.172Z,1.38
2022-09-05T15:28:19.152Z,1.27
2022-09-05T15:30:57.986Z,1.40
2022-09-05T15:33:28.304Z,1.20
2022-09-05T15:35:56.576Z,1.05
2022-09-05T15:38:25.591Z,1.65
2022-09-05T15:41:11.881Z,1.45
2022-09-05T15:43:51.472Z,1.10
2022-09-05T15:46:24.576Z,1.50
2022-09-05T15:48:58.343Z,1.30
2022-09-05T15:51:38.393Z,1.58
2022-09-05T15:54:06.297Z,1.75
2022-09-05T15:56:38.533Z,1.40
2022-09-05T15:59:06.400Z,1.60
2022-09-05T16:01:58.225Z,1.23
2022-09-05T16:10:27.035Z,1.30
2022-09-05T16:10:36.097Z,1.40
2022-09-05T16:10:50.407Z,1.27
2022-09-05T16:12:55.861Z,1.20
2022-09-05T16:18:35.585Z,0.50
2022-09-05T16:23:33.473Z,0.40
2022-09-05T16:23:34.528Z,0.95
2022-09-05T16:24:04.167Z,1.05
2022-09-05T16:26:34.398Z,1.02
2022-09-05T16:29:03.228Z,1.70
2022-09-05T16:31:36.301Z,1.88
2022-09-05T16:34:10.395Z,1.58
2022-09-05T16:36:43.941Z,1.80
2022-09-05T16:39:18.556Z,1.48
2022-09-05T16:41:47.587Z,1.42
2022-09-05T16:44:17.663Z,1.92
2022-09-05T16:46:48.747Z,1.80
2022-09-05T16:49:33.238Z,1.33
2022-09-05T16:52:13.532Z,1.40
2022-09-05T16:54:47.920Z,1.60
2022-09-05T16:57:17.294Z,1.30
2022-09-05T16:59:45.973Z,1.20
2022-09-05T17:02:16.380Z,1.27
2022-09-05T17:05:04.829Z,1.08
2022-09-05T17:07:42.077Z,1.40
2022-09-05T17:10:11.663Z,1.20
2022-09-05T17:12:40.335Z,1.20
2022-09-05T17:15:11.076Z,1.20
2022-09-05T17:18:22.090Z,1.23
2022-09-05T17:20:39.615Z,1.05
2022-09-05T17:28:02.454Z,1.00
2022-09-05T17:29:24.041Z,1.05
2022-09-05T17:29:26.428Z,1.40
2022-09-05T17:31:57.051Z,1.38
2022-09-05T17:34:41.195Z,1.60
2022-09-05T17:37:23.737Z,1.20
2022-09-05T17:39:57.248Z,1.30
2022-09-05T17:42:34.085Z,1.30
2022-09-05T17:45:07.809Z,1.33
2022-09-05T17:47:38.151Z,1.50
2022-09-05T17:50:13.529Z,1.40
2022-09-05T17:53:26.021Z,1.70
2022-09-05T17:56:12.262Z,1.48
2022-09-05T17:58:47.637Z,1.13
2022-09-05T18:01:21.214Z,1.63
2022-09-05T18:04:15.889Z,1.40
2022-09-05T18:06:59.029Z,1.60
2022-09-05T18:09:48.092Z,1.13
2022-09-05T18:13:11.738Z,0.95
2022-09-05T18:15:17.553Z,1.25
2022-09-05T18:18:00.051Z,1.20
2022-09-05T18:20:33.337Z,0.88
2022-09-05T18:25:55.230Z,0.88
2022-09-05T18:28:33.282Z,0.82
2022-09-05T18:31:16.974Z,0.98
2022-09-05T18:34:13.534Z,0.73
2022-09-05T18:36:41.644Z,1.00
2022-09-05T18:39:29.238Z,0.60
2022-09-05T18:42:04.246Z,0.32
2022-09-05T18:44:49.912Z,0.17
2022-09-05T18:47:33.065Z,0.30
2022-09-05T18:50:25.674Z,0.40
2022-09-05T18:52:50.897Z,0.82
2022-09-05T18:56:12.617Z,0.52
2022-09-05T18:58:27.104Z,0.35
2022-09-05T19:00:56.934Z,1.20
2022-09-05T19:03:26.064Z,1.00
2022-09-05T19:05:55.942Z,1.35
2022-09-05T19:08:46.820Z,1.15
2022-09-05T19:11:28.267Z,1.20
2022-09-05T19:14:25.553Z,1.58
2022-09-05T19:16:49.285Z,1.13
2022-09-05T19:19:18.468Z,1.02
2022-09-05T19:21:47.705Z,1.25
2022-09-05T19:24:25.523Z,0.40
2022-09-05T19:28:32.356Z,1.65
2022-09-05T19:36:52.816Z,2.40
2022-09-05T19:37:03.295Z,1.75
2022-09-05T19:37:05.136Z,2.00
2022-09-05T19:38:26.781Z,2.10
2022-09-05T19:47:28.368Z,2.10
2022-09-05T19:47:29.103Z,2.28
2022-09-05T19:47:35.375Z,2.40
2022-09-05T19:49:40.724Z,2.22
2022-09-05T19:52:15.480Z,2.50
2022-09-05T19:54:45.005Z,2.25
2022-09-05T19:57:15.580Z,1.63
2022-09-05T19:59:45.160Z,1.88
2022-09-05T20:02:15.458Z,2.08
2022-09-05T20:04:52.992Z,1.50
2022-09-05T20:07:21.782Z,2.03
2022-09-05T20:09:50.068Z,1.50
2022-09-05T20:12:23.965Z,1.50
2022-09-05T20:14:52.220Z,1.85
2022-09-05T20:17:21.877Z,1.60
2022-09-05T20:20:03.745Z,1.63
2022-09-05T20:22:49.154Z,1.70
2022-09-05T20:25:35.026Z,1.25
2022-09-05T20:28:09.636Z,1.63
2022-09-05T20:30:41.018Z,1.40
2022-09-05T20:33:13.862Z,1.58
2022-09-05T20:42:51.267Z,1.27
2022-09-05T20:43:22.290Z,1.60
2022-09-05T20:43:22.462Z,1.27
2022-09-05T20:44:22.356Z,1.20
2022-09-05T20:49:52.573Z,1.42
2022-09-05T20:54:17.605Z,1.48
2022-09-05T20:54:18.858Z,1.13
2022-09-05T20:55:39.621Z,1.35
2022-09-05T20:58:10.146Z,1.23
2022-09-05T21:00:38.627Z,1.77
2022-09-05T21:03:08.790Z,1.88
2022-09-05T21:05:37.837Z,1.80
2022-09-05T21:08:16.812Z,1.80
2022-09-05T21:10:55.925Z,2.13
2022-09-05T21:13:25.513Z,2.20
2022-09-05T21:15:54.394Z,1.83
2022-09-05T21:18:23.691Z,1.85
2022-09-05T21:21:00.066Z,1.13
2022-09-05T21:23:31.074Z,1.42
2022-09-05T21:25:59.437Z,1.30
2022-09-05T21:28:36.383Z,1.23
2022-09-05T21:31:06.817Z,1.10
2022-09-05T21:33:45.424Z,1.27
2022-09-05T21:36:15.672Z,1.00
2022-09-05T21:38:44.979Z,1.02
2022-09-05T21:41:15.998Z,1.30
2022-09-05T21:47:40.323Z,1.00
2022-09-05T21:47:42.648Z,0.98
2022-09-05T21:49:21.180Z,0.93
2022-09-05T21:51:50.286Z,1.38
2022-09-05T21:59:14.485Z,0.90
2022-09-05T21:59:18.514Z,0.88
2022-09-05T22:00:06.933Z,0.90
2022-09-05T22:02:49.217Z,0.70
2022-09-05T22:05:17.113Z,1.00
2022-09-05T22:07:44.786Z,1.23
2022-09-05T22:10:13.826Z,1.15
2022-09-05T22:12:42.039Z,1.00
2022-09-05T22:15:27.898Z,0.95
2022-09-05T22:18:16.106Z,0.65
2022-09-05T22:20:51.277Z,0.47
2022-09-05T22:23:35.183Z,1.10
2022-09-05T22:26:05.482Z,1.00
2022-09-05T22:28:34.099Z,1.20
2022-09-05T22:31:07.537Z,1.20
2022-09-05T22:33:35.948Z,1.20
2022-09-05T22:36:03.825Z,1.00
2022-09-05T22:38:32.532Z,0.90
2022-09-05T22:41:00.316Z,1.02
2022-09-05T22:43:29.416Z,1.10
2022-09-05T22:45:57.112Z,1.05
2022-09-05T22:48:25.051Z,0.90
2022-09-05T22:50:52.753Z,1.15
2022-09-05T22:53:20.338Z,1.00
2022-09-05T22:55:47.993Z,1.02
2022-09-05T22:58:15.988Z,1.05
2022-09-05T23:00:45.284Z,1.40
2022-09-05T23:03:12.901Z,0.57
2022-09-05T23:05:40.521Z,1.10
2022-09-05T23:08:08.456Z,1.10
2022-09-05T23:10:36.529Z,0.95
2022-09-05T23:13:05.074Z,1.13
2022-09-05T23:15:33.017Z,1.17
2022-09-05T23:18:02.284Z,1.17
2022-09-05T23:20:31.074Z,0.80
2022-09-05T23:22:58.916Z,1.15
2022-09-05T23:25:26.659Z,1.00
2022-09-05T23:27:54.239Z,0.52
2022-09-05T23:30:21.885Z,1.00
2022-09-05T23:32:50.131Z,0.93
2022-09-05T23:35:19.499Z,0.80
2022-09-05T23:37:47.930Z,0.35
2022-09-05T23:40:17.663Z,0.73
2022-09-05T23:42:51.900Z,0.75
2022-09-05T23:45:19.629Z,1.10
2022-09-05T23:47:47.585Z,1.23
2022-09-05T23:50:15.663Z,1.15
2022-09-05T23:52:44.917Z,0.82
2022-09-05T23:55:13.693Z,1.50
2022-09-05T23:57:41.684Z,1.30
